sensor_id;sensor_type;location;lat;lon;timestamp;temperature;humidity
46123;DHT22;31856;-35.404;149.120;2023-04-03T06:23:12;19.30;64.30
46123;DHT22;31856;-35.404;149.120;2023-04-03T06:25:42;19.30;64.00
46123;DHT22;31856;-35.404;149.120;2023-04-03T06:28:11;19.30;64.00
46123;DHT22;31856;-35.404;149.120;2023-04-03T06:30:41;19.30;63.80
46123;DHT22;31856;-35.404;149.120;2023-04-03T06:33:11;19.30;63.40
46123;DHT22;31856;-35.404;149.120;2023-04-03T06:35:40;19.30;63.40
46123;DHT22;31856;-35.404;149.120;2023-04-03T06:38:10;19.30;63.90
46123;DHT22;31856;-35.404;149.120;2023-04-03T06:40:40;19.30;63.90
46123;DHT22;31856;-35.404;149.120;2023-04-03T06:43:10;19.30;64.40
46123;DHT22;31856;-35.404;149.120;2023-04-03T06:45:39;19.30;64.30
46123;DHT22;31856;-35.404;149.120;2023-04-03T06:48:09;19.20;63.60
46123;DHT22;31856;-35.404;149.120;2023-04-03T06:50:46;19.20;64.20
46123;DHT22;31856;-35.404;149.120;2023-04-03T06:53:15;19.10;64.20
46123;DHT22;31856;-35.404;149.120;2023-04-03T06:55:45;19.10;64.10
46123;DHT22;31856;-35.404;149.120;2023-04-03T06:58:15;19.10;64.60
46123;DHT22;31856;-35.404;149.120;2023-04-03T07:00:49;19.00;64.60
46123;DHT22;31856;-35.404;149.120;2023-04-03T07:03:21;19.00;65.10
46123;DHT22;31856;-35.404;149.120;2023-04-03T07:05:51;19.00;65.50
46123;DHT22;31856;-35.404;149.120;2023-04-03T07:08:20;18.90;64.80
46123;DHT22;31856;-35.404;149.120;2023-04-03T07:10:51;18.80;64.80
46123;DHT22;31856;-35.404;149.120;2023-04-03T07:13:21;18.80;66.20
46123;DHT22;31856;-35.404;149.120;2023-04-03T07:15:50;18.80;66.60
46123;DHT22;31856;-35.404;149.120;2023-04-03T07:18:20;18.80;66.50
46123;DHT22;31856;-35.404;149.120;2023-04-03T07:20:50;18.80;66.80
46123;DHT22;31856;-35.404;149.120;2023-04-03T07:40:53;18.70;68.90
46123;DHT22;31856;-35.404;149.120;2023-04-03T07:43:23;18.70;69.10
46123;DHT22;31856;-35.404;149.120;2023-04-03T07:45:55;18.70;69.10
46123;DHT22;31856;-35.404;149.120;2023-04-03T07:48:26;18.70;69.30
46123;DHT22;31856;-35.404;149.120;2023-04-03T07:50:59;18.60;69.30
46123;DHT22;31856;-35.404;149.120;2023-04-03T07:53:29;18.60;69.40
46123;DHT22;31856;-35.404;149.120;2023-04-03T07:55:59;18.60;69.40
46123;DHT22;31856;-35.404;149.120;2023-04-03T07:58:31;18.60;69.50
46123;DHT22;31856;-35.404;149.120;2023-04-03T08:01:01;18.50;69.40
46123;DHT22;31856;-35.404;149.120;2023-04-03T08:03:31;18.50;69.60
46123;DHT22;31856;-35.404;149.120;2023-04-03T08:06:02;18.50;69.50
46123;DHT22;31856;-35.404;149.120;2023-04-03T08:08:37;18.40;69.70
46123;DHT22;31856;-35.404;149.120;2023-04-03T08:11:07;18.40;69.70
46123;DHT22;31856;-35.404;149.120;2023-04-03T08:13:37;18.40;70.10
46123;DHT22;31856;-35.404;149.120;2023-04-03T08:16:16;18.30;70.20
46123;DHT22;31856;-35.404;149.120;2023-04-03T08:18:46;18.20;70.20
46123;DHT22;31856;-35.404;149.120;2023-04-03T08:21:16;18.20;70.30
46123;DHT22;31856;-35.404;149.120;2023-04-03T08:23:47;18.20;70.20
46123;DHT22;31856;-35.404;149.120;2023-04-03T08:26:18;18.10;70.50
46123;DHT22;31856;-35.404;149.120;2023-04-03T08:28:49;18.00;70.80
46123;DHT22;31856;-35.404;149.120;2023-04-03T08:31:19;18.00;70.90
46123;DHT22;31856;-35.404;149.120;2023-04-03T08:33:48;18.00;71.00
46123;DHT22;31856;-35.404;149.120;2023-04-03T08:36:19;17.90;71.20
46123;DHT22;31856;-35.404;149.120;2023-04-03T08:38:50;17.90;71.60
46123;DHT22;31856;-35.404;149.120;2023-04-03T08:44:03;17.80;71.90
46123;DHT22;31856;-35.404;149.120;2023-04-03T08:46:54;17.80;72.00
46123;DHT22;31856;-35.404;149.120;2023-04-03T08:49:27;17.80;72.00
46123;DHT22;31856;-35.404;149.120;2023-04-03T08:51:57;17.80;72.10
46123;DHT22;31856;-35.404;149.120;2023-04-03T08:54:50;17.80;72.00
46123;DHT22;31856;-35.404;149.120;2023-04-03T08:57:29;17.80;72.30
46123;DHT22;31856;-35.404;149.120;2023-04-03T09:00:03;17.80;72.50
46123;DHT22;31856;-35.404;149.120;2023-04-03T09:02:35;17.80;72.90
46123;DHT22;31856;-35.404;149.120;2023-04-03T09:05:16;17.80;73.20
46123;DHT22;31856;-35.404;149.120;2023-04-03T09:07:55;17.80;73.70
46123;DHT22;31856;-35.404;149.120;2023-04-03T09:10:28;17.80;73.90
46123;DHT22;31856;-35.404;149.120;2023-04-03T09:13:02;17.70;74.10
46123;DHT22;31856;-35.404;149.120;2023-04-03T09:15:35;17.70;74.30
46123;DHT22;31856;-35.404;149.120;2023-04-03T09:23:33;17.70;74.90
46123;DHT22;31856;-35.404;149.120;2023-04-03T09:26:09;17.70;75.00
46123;DHT22;31856;-35.404;149.120;2023-04-03T09:28:40;17.70;75.10
46123;DHT22;31856;-35.404;149.120;2023-04-03T09:31:22;17.70;75.10
46123;DHT22;31856;-35.404;149.120;2023-04-03T09:33:56;17.60;75.40
46123;DHT22;31856;-35.404;149.120;2023-04-03T09:36:39;17.60;75.30
46123;DHT22;31856;-35.404;149.120;2023-04-03T09:39:11;17.60;75.40
46123;DHT22;31856;-35.404;149.120;2023-04-03T09:41:41;17.60;75.40
46123;DHT22;31856;-35.404;149.120;2023-04-03T09:47:44;17.50;75.50
46123;DHT22;31856;-35.404;149.120;2023-04-03T09:52:44;17.40;75.80
46123;DHT22;31856;-35.404;149.120;2023-04-03T09:55:15;17.40;75.80
46123;DHT22;31856;-35.404;149.120;2023-04-03T09:57:45;17.40;75.90
46123;DHT22;31856;-35.404;149.120;2023-04-03T10:00:23;17.40;75.80
46123;DHT22;31856;-35.404;149.120;2023-04-03T10:02:54;17.30;76.20
46123;DHT22;31856;-35.404;149.120;2023-04-03T10:05:38;17.30;76.20
46123;DHT22;31856;-35.404;149.120;2023-04-03T10:08:09;17.30;76.20
46123;DHT22;31856;-35.404;149.120;2023-04-03T10:10:42;17.20;76.30
46123;DHT22;31856;-35.404;149.120;2023-04-03T10:13:15;17.30;76.30
46123;DHT22;31856;-35.404;149.120;2023-04-03T10:15:54;17.20;76.40
46123;DHT22;31856;-35.404;149.120;2023-04-03T10:24:08;17.10;76.70
46123;DHT22;31856;-35.404;149.120;2023-04-03T10:26:42;17.00;76.90
46123;DHT22;31856;-35.404;149.120;2023-04-03T10:29:21;17.00;76.90
46123;DHT22;31856;-35.404;149.120;2023-04-03T10:34:40;17.00;77.20
46123;DHT22;31856;-35.404;149.120;2023-04-03T10:40:24;16.90;77.50
46123;DHT22;31856;-35.404;149.120;2023-04-03T10:45:46;16.90;78.00
46123;DHT22;31856;-35.404;149.120;2023-04-03T10:58:30;16.90;78.20
46123;DHT22;31856;-35.404;149.120;2023-04-03T11:01:02;16.90;78.00
46123;DHT22;31856;-35.404;149.120;2023-04-03T11:03:36;16.90;78.10
46123;DHT22;31856;-35.404;149.120;2023-04-03T11:06:13;16.90;78.10
46123;DHT22;31856;-35.404;149.120;2023-04-03T11:11:17;16.80;78.20
46123;DHT22;31856;-35.404;149.120;2023-04-03T11:14:13;16.80;78.10
46123;DHT22;31856;-35.404;149.120;2023-04-03T11:16:45;16.80;78.10
46123;DHT22;31856;-35.404;149.120;2023-04-03T11:19:21;16.80;78.10
46123;DHT22;31856;-35.404;149.120;2023-04-03T11:21:57;16.80;78.10
46123;DHT22;31856;-35.404;149.120;2023-04-03T11:24:31;16.80;78.10
46123;DHT22;31856;-35.404;149.120;2023-04-03T11:27:01;16.80;78.20
46123;DHT22;31856;-35.404;149.120;2023-04-03T11:29:34;16.70;78.20
46123;DHT22;31856;-35.404;149.120;2023-04-03T11:32:16;16.70;78.20
46123;DHT22;31856;-35.404;149.120;2023-04-03T11:34:50;16.70;78.20
46123;DHT22;31856;-35.404;149.120;2023-04-03T11:37:26;16.70;78.30
46123;DHT22;31856;-35.404;149.120;2023-04-03T11:39:59;16.60;78.20
46123;DHT22;31856;-35.404;149.120;2023-04-03T11:47:48;16.60;78.30
46123;DHT22;31856;-35.404;149.120;2023-04-03T11:53:25;16.60;78.20
46123;DHT22;31856;-35.404;149.120;2023-04-03T11:58:28;16.50;77.90
46123;DHT22;31856;-35.404;149.120;2023-04-03T12:01:08;16.50;77.90
46123;DHT22;31856;-35.404;149.120;2023-04-03T12:08:52;16.50;78.20
46123;DHT22;31856;-35.404;149.120;2023-04-03T12:11:29;16.50;78.10
46123;DHT22;31856;-35.404;149.120;2023-04-03T12:22:09;16.50;78.10
46123;DHT22;31856;-35.404;149.120;2023-04-03T12:24:39;16.50;78.10
46123;DHT22;31856;-35.404;149.120;2023-04-03T12:45:40;16.50;77.80
46123;DHT22;31856;-35.404;149.120;2023-04-03T12:48:17;16.50;78.00
46123;DHT22;31856;-35.404;149.120;2023-04-03T12:50:48;16.50;78.10
46123;DHT22;31856;-35.404;149.120;2023-04-03T12:53:19;16.50;78.10
46123;DHT22;31856;-35.404;149.120;2023-04-03T12:55:55;16.50;78.00
46123;DHT22;31856;-35.404;149.120;2023-04-03T12:58:25;16.40;78.50
46123;DHT22;31856;-35.404;149.120;2023-04-03T13:01:03;16.40;78.40
46123;DHT22;31856;-35.404;149.120;2023-04-03T13:03:32;16.40;78.50
46123;DHT22;31856;-35.404;149.120;2023-04-03T13:06:02;16.40;78.50
46123;DHT22;31856;-35.404;149.120;2023-04-03T13:08:33;16.40;78.50
46123;DHT22;31856;-35.404;149.120;2023-04-03T13:11:03;16.40;78.60
46123;DHT22;31856;-35.404;149.120;2023-04-03T13:13:34;16.40;78.70
46123;DHT22;31856;-35.404;149.120;2023-04-03T13:16:08;16.40;78.40
46123;DHT22;31856;-35.404;149.120;2023-04-03T13:18:39;16.40;78.40
46123;DHT22;31856;-35.404;149.120;2023-04-03T13:21:16;16.40;78.40
46123;DHT22;31856;-35.404;149.120;2023-04-03T13:23:48;16.40;78.50
46123;DHT22;31856;-35.404;149.120;2023-04-03T13:26:28;16.40;78.40
46123;DHT22;31856;-35.404;149.120;2023-04-03T13:29:03;16.40;78.50
46123;DHT22;31856;-35.404;149.120;2023-04-03T13:31:38;16.40;78.50
46123;DHT22;31856;-35.404;149.120;2023-04-03T13:34:10;16.40;78.40
46123;DHT22;31856;-35.404;149.120;2023-04-03T13:36:41;16.30;78.60
46123;DHT22;31856;-35.404;149.120;2023-04-03T13:41:45;16.40;78.40
46123;DHT22;31856;-35.404;149.120;2023-04-03T13:50:12;16.30;79.00
46123;DHT22;31856;-35.404;149.120;2023-04-03T13:52:43;16.30;78.80
46123;DHT22;31856;-35.404;149.120;2023-04-03T13:57:54;16.30;78.90
46123;DHT22;31856;-35.404;149.120;2023-04-03T14:00:28;16.30;79.00
46123;DHT22;31856;-35.404;149.120;2023-04-03T14:02:58;16.30;79.10
46123;DHT22;31856;-35.404;149.120;2023-04-03T14:05:29;16.30;79.00
46123;DHT22;31856;-35.404;149.120;2023-04-03T14:07:58;16.30;79.10
46123;DHT22;31856;-35.404;149.120;2023-04-03T14:10:29;16.30;79.10
46123;DHT22;31856;-35.404;149.120;2023-04-03T14:12:59;16.30;78.80
46123;DHT22;31856;-35.404;149.120;2023-04-03T14:15:29;16.30;79.20
46123;DHT22;31856;-35.404;149.120;2023-04-03T14:17:59;16.30;79.10
46123;DHT22;31856;-35.404;149.120;2023-04-03T14:20:32;16.30;79.50
46123;DHT22;31856;-35.404;149.120;2023-04-03T14:23:02;16.20;79.20
46123;DHT22;31856;-35.404;149.120;2023-04-03T14:25:32;16.30;79.50
46123;DHT22;31856;-35.404;149.120;2023-04-03T14:31:02;16.30;79.20
46123;DHT22;31856;-35.404;149.120;2023-04-03T14:33:32;16.30;79.40
46123;DHT22;31856;-35.404;149.120;2023-04-03T14:36:25;16.30;79.20
46123;DHT22;31856;-35.404;149.120;2023-04-03T14:38:57;16.30;79.30
46123;DHT22;31856;-35.404;149.120;2023-04-03T14:41:27;16.30;79.30
46123;DHT22;31856;-35.404;149.120;2023-04-03T14:43:57;16.30;79.20
46123;DHT22;31856;-35.404;149.120;2023-04-03T14:46:31;16.30;79.30
46123;DHT22;31856;-35.404;149.120;2023-04-03T14:49:22;16.30;79.60
46123;DHT22;31856;-35.404;149.120;2023-04-03T14:51:52;16.30;79.50
46123;DHT22;31856;-35.404;149.120;2023-04-03T14:54:22;16.30;79.70
46123;DHT22;31856;-35.404;149.120;2023-04-03T14:56:56;16.30;79.50
46123;DHT22;31856;-35.404;149.120;2023-04-03T14:59:26;16.30;79.40
46123;DHT22;31856;-35.404;149.120;2023-04-03T15:01:56;16.30;79.40
46123;DHT22;31856;-35.404;149.120;2023-04-03T15:04:26;16.30;79.50
46123;DHT22;31856;-35.404;149.120;2023-04-03T15:06:56;16.30;79.30
46123;DHT22;31856;-35.404;149.120;2023-04-03T15:09:26;16.30;79.50
46123;DHT22;31856;-35.404;149.120;2023-04-03T15:11:57;16.30;79.50
46123;DHT22;31856;-35.404;149.120;2023-04-03T15:14:27;16.30;79.40
46123;DHT22;31856;-35.404;149.120;2023-04-03T15:17:10;16.20;79.50
46123;DHT22;31856;-35.404;149.120;2023-04-03T15:19:43;16.20;79.60
46123;DHT22;31856;-35.404;149.120;2023-04-03T15:22:14;16.20;79.70
46123;DHT22;31856;-35.404;149.120;2023-04-03T15:24:44;16.20;80.00
46123;DHT22;31856;-35.404;149.120;2023-04-03T15:27:14;16.20;80.00
46123;DHT22;31856;-35.404;149.120;2023-04-03T15:29:44;16.20;79.80
46123;DHT22;31856;-35.404;149.120;2023-04-03T15:32:13;16.10;79.90
46123;DHT22;31856;-35.404;149.120;2023-04-03T15:34:43;16.20;79.90
46123;DHT22;31856;-35.404;149.120;2023-04-03T15:37:13;16.20;80.50
46123;DHT22;31856;-35.404;149.120;2023-04-03T15:39:42;16.20;80.40
46123;DHT22;31856;-35.404;149.120;2023-04-03T15:42:12;16.20;80.00
46123;DHT22;31856;-35.404;149.120;2023-04-03T15:44:41;16.20;79.70
46123;DHT22;31856;-35.404;149.120;2023-04-03T15:47:11;16.20;79.50
46123;DHT22;31856;-35.404;149.120;2023-04-03T15:49:40;16.20;79.60
46123;DHT22;31856;-35.404;149.120;2023-04-03T15:52:10;16.20;79.30
46123;DHT22;31856;-35.404;149.120;2023-04-03T15:54:40;16.20;79.10
46123;DHT22;31856;-35.404;149.120;2023-04-03T15:57:10;16.20;79.10
46123;DHT22;31856;-35.404;149.120;2023-04-03T15:59:40;16.20;79.10
46123;DHT22;31856;-35.404;149.120;2023-04-03T16:02:09;16.20;79.30
46123;DHT22;31856;-35.404;149.120;2023-04-03T16:04:41;16.20;79.10
46123;DHT22;31856;-35.404;149.120;2023-04-03T16:07:10;16.20;79.30
46123;DHT22;31856;-35.404;149.120;2023-04-03T16:09:40;16.20;79.40
46123;DHT22;31856;-35.404;149.120;2023-04-03T16:12:09;16.20;79.30
46123;DHT22;31856;-35.404;149.120;2023-04-03T16:14:39;16.20;79.00
46123;DHT22;31856;-35.404;149.120;2023-04-03T16:17:08;16.20;79.00
46123;DHT22;31856;-35.404;149.120;2023-04-03T16:19:38;16.20;79.20
46123;DHT22;31856;-35.404;149.120;2023-04-03T16:22:08;16.20;79.30
46123;DHT22;31856;-35.404;149.120;2023-04-03T16:24:37;16.10;79.50
46123;DHT22;31856;-35.404;149.120;2023-04-03T16:27:07;16.10;79.40
46123;DHT22;31856;-35.404;149.120;2023-04-03T16:29:36;16.10;79.80
46123;DHT22;31856;-35.404;149.120;2023-04-03T16:32:06;16.10;79.70
46123;DHT22;31856;-35.404;149.120;2023-04-03T16:34:36;16.10;79.50
46123;DHT22;31856;-35.404;149.120;2023-04-03T16:37:06;16.10;79.60
46123;DHT22;31856;-35.404;149.120;2023-04-03T16:39:37;16.10;79.80
46123;DHT22;31856;-35.404;149.120;2023-04-03T16:42:06;16.10;79.70
46123;DHT22;31856;-35.404;149.120;2023-04-03T16:44:37;16.10;79.70
46123;DHT22;31856;-35.404;149.120;2023-04-03T16:47:08;16.10;79.80
46123;DHT22;31856;-35.404;149.120;2023-04-03T16:49:38;16.20;79.50
46123;DHT22;31856;-35.404;149.120;2023-04-03T16:52:08;16.10;79.70
46123;DHT22;31856;-35.404;149.120;2023-04-03T16:54:37;16.10;80.10
46123;DHT22;31856;-35.404;149.120;2023-04-03T16:57:07;16.10;79.80
46123;DHT22;31856;-35.404;149.120;2023-04-03T16:59:36;16.10;79.70
46123;DHT22;31856;-35.404;149.120;2023-04-03T17:02:06;16.10;79.70
46123;DHT22;31856;-35.404;149.120;2023-04-03T17:04:35;16.10;79.60
46123;DHT22;31856;-35.404;149.120;2023-04-03T17:07:05;16.10;79.70
46123;DHT22;31856;-35.404;149.120;2023-04-03T17:09:34;16.10;79.70
46123;DHT22;31856;-35.404;149.120;2023-04-03T17:12:04;16.10;79.90
46123;DHT22;31856;-35.404;149.120;2023-04-03T17:14:33;16.10;80.00
46123;DHT22;31856;-35.404;149.120;2023-04-03T17:17:20;16.10;80.10
46123;DHT22;31856;-35.404;149.120;2023-04-03T17:19:50;16.10;80.20
46123;DHT22;31856;-35.404;149.120;2023-04-03T17:22:22;16.10;80.10
46123;DHT22;31856;-35.404;149.120;2023-04-03T17:24:52;16.10;80.00
46123;DHT22;31856;-35.404;149.120;2023-04-03T17:27:21;16.10;79.80
46123;DHT22;31856;-35.404;149.120;2023-04-03T17:29:51;16.10;79.50
46123;DHT22;31856;-35.404;149.120;2023-04-03T17:32:21;16.10;79.50
46123;DHT22;31856;-35.404;149.120;2023-04-03T17:34:50;16.10;79.60
46123;DHT22;31856;-35.404;149.120;2023-04-03T17:37:20;16.00;79.50
46123;DHT22;31856;-35.404;149.120;2023-04-03T17:39:49;16.00;79.50
46123;DHT22;31856;-35.404;149.120;2023-04-03T17:42:19;15.90;79.40
46123;DHT22;31856;-35.404;149.120;2023-04-03T17:44:48;15.90;79.50
46123;DHT22;31856;-35.404;149.120;2023-04-03T17:47:18;15.90;79.50
46123;DHT22;31856;-35.404;149.120;2023-04-03T17:49:48;15.90;79.60
46123;DHT22;31856;-35.404;149.120;2023-04-03T17:52:19;15.80;79.70
46123;DHT22;31856;-35.404;149.120;2023-04-03T17:54:51;15.80;79.60
46123;DHT22;31856;-35.404;149.120;2023-04-03T17:57:21;15.80;79.70
46123;DHT22;31856;-35.404;149.120;2023-04-03T17:59:50;15.80;79.90
46123;DHT22;31856;-35.404;149.120;2023-04-03T18:02:21;15.80;79.90
46123;DHT22;31856;-35.404;149.120;2023-04-03T18:04:52;15.70;79.90
46123;DHT22;31856;-35.404;149.120;2023-04-03T18:07:22;15.80;79.80
46123;DHT22;31856;-35.404;149.120;2023-04-03T18:09:52;15.70;79.70
46123;DHT22;31856;-35.404;149.120;2023-04-03T18:12:21;15.70;79.90
46123;DHT22;31856;-35.404;149.120;2023-04-03T18:14:51;15.70;79.80
46123;DHT22;31856;-35.404;149.120;2023-04-03T18:17:20;15.60;79.90
46123;DHT22;31856;-35.404;149.120;2023-04-03T18:19:50;15.60;80.00
46123;DHT22;31856;-35.404;149.120;2023-04-03T18:22:20;15.60;79.90
46123;DHT22;31856;-35.404;149.120;2023-04-03T18:24:51;15.60;80.00
46123;DHT22;31856;-35.404;149.120;2023-04-03T18:27:21;15.60;80.00
46123;DHT22;31856;-35.404;149.120;2023-04-03T18:29:56;15.60;79.90
46123;DHT22;31856;-35.404;149.120;2023-04-03T18:32:26;15.60;80.10
46123;DHT22;31856;-35.404;149.120;2023-04-03T18:34:55;15.50;80.30
46123;DHT22;31856;-35.404;149.120;2023-04-03T18:37:25;15.50;80.30
46123;DHT22;31856;-35.404;149.120;2023-04-03T18:39:56;15.40;80.10
46123;DHT22;31856;-35.404;149.120;2023-04-03T18:42:25;15.40;80.10
46123;DHT22;31856;-35.404;149.120;2023-04-03T18:44:55;15.30;80.20
46123;DHT22;31856;-35.404;149.120;2023-04-03T18:47:26;15.30;80.20
46123;DHT22;31856;-35.404;149.120;2023-04-03T18:49:57;15.30;80.40
46123;DHT22;31856;-35.404;149.120;2023-04-03T18:52:26;15.30;80.30
46123;DHT22;31856;-35.404;149.120;2023-04-03T18:54:56;15.20;80.20
46123;DHT22;31856;-35.404;149.120;2023-04-03T18:57:25;15.20;80.10
46123;DHT22;31856;-35.404;149.120;2023-04-03T18:59:55;15.20;80.00
46123;DHT22;31856;-35.404;149.120;2023-04-03T19:02:24;15.10;80.00
46123;DHT22;31856;-35.404;149.120;2023-04-03T19:04:54;15.10;80.10
46123;DHT22;31856;-35.404;149.120;2023-04-03T19:07:26;15.00;80.00
46123;DHT22;31856;-35.404;149.120;2023-04-03T19:09:56;14.90;80.00
46123;DHT22;31856;-35.404;149.120;2023-04-03T19:12:25;14.90;79.80
46123;DHT22;31856;-35.404;149.120;2023-04-03T19:14:55;14.80;79.70
46123;DHT22;31856;-35.404;149.120;2023-04-03T19:17:24;14.80;79.70
46123;DHT22;31856;-35.404;149.120;2023-04-03T19:19:56;14.70;79.70
46123;DHT22;31856;-35.404;149.120;2023-04-03T19:22:27;14.70;79.60
46123;DHT22;31856;-35.404;149.120;2023-04-03T19:24:58;14.60;79.80
46123;DHT22;31856;-35.404;149.120;2023-04-03T19:27:28;14.60;79.80
46123;DHT22;31856;-35.404;149.120;2023-04-03T19:29:57;14.50;79.70
46123;DHT22;31856;-35.404;149.120;2023-04-03T19:32:27;14.50;79.60
46123;DHT22;31856;-35.404;149.120;2023-04-03T19:34:57;14.40;79.70
46123;DHT22;31856;-35.404;149.120;2023-04-03T19:37:27;14.40;79.70
46123;DHT22;31856;-35.404;149.120;2023-04-03T19:39:56;14.30;79.80
46123;DHT22;31856;-35.404;149.120;2023-04-03T19:42:26;14.30;80.00
46123;DHT22;31856;-35.404;149.120;2023-04-03T19:44:56;14.20;80.20
46123;DHT22;31856;-35.404;149.120;2023-04-03T19:47:26;14.20;80.30
46123;DHT22;31856;-35.404;149.120;2023-04-03T19:49:57;14.10;80.10
46123;DHT22;31856;-35.404;149.120;2023-04-03T19:52:26;14.10;80.00
46123;DHT22;31856;-35.404;149.120;2023-04-03T19:54:56;14.00;80.00
46123;DHT22;31856;-35.404;149.120;2023-04-03T19:57:26;14.00;79.90
46123;DHT22;31856;-35.404;149.120;2023-04-03T19:59:55;13.90;80.00
46123;DHT22;31856;-35.404;149.120;2023-04-03T20:02:25;13.90;80.00
46123;DHT22;31856;-35.404;149.120;2023-04-03T20:04:55;13.80;80.20
46123;DHT22;31856;-35.404;149.120;2023-04-03T20:07:24;13.80;80.40
46123;DHT22;31856;-35.404;149.120;2023-04-03T20:09:55;13.70;80.10
46123;DHT22;31856;-35.404;149.120;2023-04-03T20:12:24;13.70;79.80
46123;DHT22;31856;-35.404;149.120;2023-04-03T20:14:55;13.70;79.90
46123;DHT22;31856;-35.404;149.120;2023-04-03T20:17:26;13.60;80.30
46123;DHT22;31856;-35.404;149.120;2023-04-03T20:19:55;13.60;80.70
46123;DHT22;31856;-35.404;149.120;2023-04-03T20:22:29;13.60;80.90
46123;DHT22;31856;-35.404;149.120;2023-04-03T20:25:00;13.60;80.80
46123;DHT22;31856;-35.404;149.120;2023-04-03T20:27:32;13.50;80.70
46123;DHT22;31856;-35.404;149.120;2023-04-03T20:30:03;13.50;80.60
46123;DHT22;31856;-35.404;149.120;2023-04-03T20:32:36;13.50;80.60
46123;DHT22;31856;-35.404;149.120;2023-04-03T20:35:06;13.50;80.60
46123;DHT22;31856;-35.404;149.120;2023-04-03T20:37:35;13.50;80.60
46123;DHT22;31856;-35.404;149.120;2023-04-03T20:40:13;13.50;80.60
46123;DHT22;31856;-35.404;149.120;2023-04-03T20:42:43;13.40;80.90
46123;DHT22;31856;-35.404;149.120;2023-04-03T20:45:12;13.40;81.10
46123;DHT22;31856;-35.404;149.120;2023-04-03T20:47:42;13.40;81.40
46123;DHT22;31856;-35.404;149.120;2023-04-03T20:50:11;13.40;81.50
46123;DHT22;31856;-35.404;149.120;2023-04-03T20:52:41;13.40;81.20
46123;DHT22;31856;-35.404;149.120;2023-04-03T20:55:11;13.40;81.40
46123;DHT22;31856;-35.404;149.120;2023-04-03T20:57:40;13.40;81.60
46123;DHT22;31856;-35.404;149.120;2023-04-03T21:00:20;13.40;81.70
46123;DHT22;31856;-35.404;149.120;2023-04-03T21:02:50;13.40;81.90
46123;DHT22;31856;-35.404;149.120;2023-04-03T21:05:20;13.50;81.90
46123;DHT22;31856;-35.404;149.120;2023-04-03T21:21:25;13.60;82.80
46123;DHT22;31856;-35.404;149.120;2023-04-03T21:23:55;13.70;83.10
46123;DHT22;31856;-35.404;149.120;2023-04-03T21:26:25;13.80;83.00
46123;DHT22;31856;-35.404;149.120;2023-04-03T21:28:55;13.80;83.10
46123;DHT22;31856;-35.404;149.120;2023-04-03T21:31:30;13.90;83.20
46123;DHT22;31856;-35.404;149.120;2023-04-03T21:34:14;14.00;83.00
46123;DHT22;31856;-35.404;149.120;2023-04-03T21:36:44;14.10;83.00
46123;DHT22;31856;-35.404;149.120;2023-04-03T21:39:15;14.10;82.90
46123;DHT22;31856;-35.404;149.120;2023-04-03T21:41:44;14.20;82.80
46123;DHT22;31856;-35.404;149.120;2023-04-03T21:44:14;14.20;82.70
46123;DHT22;31856;-35.404;149.120;2023-04-03T21:46:47;14.30;82.80
46123;DHT22;31856;-35.404;149.120;2023-04-03T21:49:22;14.30;82.60
46123;DHT22;31856;-35.404;149.120;2023-04-03T21:51:52;14.40;82.40
46123;DHT22;31856;-35.404;149.120;2023-04-03T21:54:23;14.40;82.30
46123;DHT22;31856;-35.404;149.120;2023-04-03T21:56:52;14.40;82.20
46123;DHT22;31856;-35.404;149.120;2023-04-03T21:59:21;14.50;82.40
46123;DHT22;31856;-35.404;149.120;2023-04-03T22:01:51;14.60;82.20
46123;DHT22;31856;-35.404;149.120;2023-04-03T22:04:21;14.70;81.90
46123;DHT22;31856;-35.404;149.120;2023-04-03T22:06:50;14.80;81.50
46123;DHT22;31856;-35.404;149.120;2023-04-03T22:09:20;14.80;81.30
46123;DHT22;31856;-35.404;149.120;2023-04-03T22:11:50;14.90;81.10
46123;DHT22;31856;-35.404;149.120;2023-04-03T22:14:20;15.00;80.80
46123;DHT22;31856;-35.404;149.120;2023-04-03T22:16:50;15.00;80.50
46123;DHT22;31856;-35.404;149.120;2023-04-03T22:19:20;15.20;80.40
46123;DHT22;31856;-35.404;149.120;2023-04-03T22:21:49;15.30;79.80
46123;DHT22;31856;-35.404;149.120;2023-04-03T22:24:19;15.40;79.40
46123;DHT22;31856;-35.404;149.120;2023-04-03T22:26:48;15.50;79.20
46123;DHT22;31856;-35.404;149.120;2023-04-03T22:29:18;15.60;79.00
46123;DHT22;31856;-35.404;149.120;2023-04-03T22:31:47;15.70;78.70
46123;DHT22;31856;-35.404;149.120;2023-04-03T22:34:17;15.80;78.20
46123;DHT22;31856;-35.404;149.120;2023-04-03T22:36:47;15.90;77.70
46123;DHT22;31856;-35.404;149.120;2023-04-03T22:39:17;16.10;76.90
46123;DHT22;31856;-35.404;149.120;2023-04-03T22:41:46;16.30;75.90
46123;DHT22;31856;-35.404;149.120;2023-04-03T22:44:16;16.40;74.90
